Time;durP1;ratioP1;P1;durP2;ratioP2;P2;SDS_P1;SDS_P2;PMS_P1;PMS_P2;Temp;Humidity;BMP_temperature;BMP_pressure;BME280_temperature;BME280_humidity;BME280_pressure;Samples;Min_cycle;Max_cycle;Signal;HPM_P1;HPM_P2
2023/06/01 00:01:01;;;;;;;4.93;2.58;;;17.60;99.90;;;;;;5055078;28;20049;-82
2023/06/01 00:03:29;;;;;;;8.50;2.40;;;17.60;99.90;;;;;;5047662;28;20124;-82
2023/06/01 00:05:56;;;;;;;3.42;1.85;;;17.50;99.90;;;;;;5032960;28;20468;-82
2023/06/01 00:08:23;;;;;;;6.60;2.45;;;17.50;99.90;;;;;;5032787;28;20056;-85
2023/06/01 00:10:50;;;;;;;3.67;2.25;;;17.50;99.90;;;;;;5051287;28;20056;-83
2023/06/01 00:13:16;;;;;;;7.50;3.22;;;17.40;99.90;;;;;;5046911;28;20056;-82
2023/06/01 00:15:43;;;;;;;4.63;2.10;;;17.40;99.90;;;;;;5045168;28;20042;-83
2023/06/01 00:18:12;;;;;;;6.10;2.90;;;17.40;99.90;;;;;;5043717;28;20041;-83
2023/06/01 00:20:39;;;;;;;6.72;2.38;;;17.40;99.90;;;;;;5051451;28;20045;-83
2023/06/01 00:23:06;;;;;;;10.68;2.50;;;17.30;99.90;;;;;;5056535;28;20044;-84
2023/06/01 00:25:33;;;;;;;5.82;2.80;;;17.30;99.90;;;;;;5039385;28;20069;-83
2023/06/01 00:28:02;;;;;;;2.95;2.10;;;17.20;99.90;;;;;;5049542;28;20060;-84
2023/06/01 00:30:29;;;;;;;6.00;2.53;;;17.20;99.90;;;;;;5049707;28;20060;-82
2023/06/01 00:32:56;;;;;;;11.30;2.53;;;17.20;99.90;;;;;;5047227;28;20049;-83
2023/06/01 00:35:22;;;;;;;6.20;2.95;;;17.20;99.90;;;;;;5052335;28;20051;-83
2023/06/01 00:37:49;;;;;;;7.00;3.10;;;17.20;99.90;;;;;;5055440;28;20504;-83
2023/06/01 00:40:16;;;;;;;3.45;2.40;;;17.20;99.90;;;;;;5055512;28;20048;-83
2023/06/01 00:42:43;;;;;;;5.88;2.60;;;17.10;99.90;;;;;;5052464;28;20493;-83
2023/06/01 00:45:10;;;;;;;3.55;2.40;;;17.10;99.90;;;;;;5030011;28;20050;-83
2023/06/01 00:47:42;;;;;;;5.25;2.60;;;17.10;99.90;;;;;;5031610;28;20417;-83
2023/06/01 00:50:11;;;;;;;7.78;2.85;;;17.00;99.90;;;;;;5055204;28;20095;-83
2023/06/01 00:52:38;;;;;;;3.28;2.20;;;17.00;99.90;;;;;;5053312;28;20045;-83
2023/06/01 00:55:06;;;;;;;5.68;2.85;;;17.00;99.90;;;;;;5055924;28;20048;-83
2023/06/01 00:57:33;;;;;;;7.38;2.90;;;17.00;99.90;;;;;;5049832;28;20077;-84
2023/06/01 01:00:08;;;;;;;4.45;2.60;;;16.90;99.90;;;;;;5046676;28;20041;-83
2023/06/01 01:02:40;;;;;;;6.07;2.80;;;16.90;99.90;;;;;;5044516;28;20100;-83
2023/06/01 01:05:09;;;;;;;5.53;2.97;;;16.90;99.90;;;;;;5051917;28;20444;-83
2023/06/01 01:07:51;;;;;;;4.90;2.88;;;16.80;99.90;;;;;;5047765;28;20053;-83
2023/06/01 01:10:33;;;;;;;5.30;3.38;;;16.80;99.90;;;;;;5053936;28;20049;-83
2023/06/01 01:13:33;;;;;;;5.60;2.88;;;16.80;99.90;;;;;;5050822;28;20049;-83
2023/06/01 01:16:10;;;;;;;3.70;2.72;;;16.70;99.90;;;;;;5048297;28;20072;-83
2023/06/01 01:18:41;;;;;;;12.35;2.92;;;16.70;99.90;;;;;;5011400;28;20051;-83
2023/06/01 01:21:28;;;;;;;6.70;3.00;;;16.70;99.90;;;;;;5056596;28;20477;-84
2023/06/01 01:24:21;;;;;;;4.72;3.05;;;16.60;99.90;;;;;;5036003;28;20095;-84
2023/06/01 01:26:53;;;;;;;5.03;3.05;;;16.60;99.90;;;;;;5051260;28;20049;-82
2023/06/01 01:29:23;;;;;;;6.97;3.20;;;16.50;99.90;;;;;;5045142;28;20060;-82
2023/06/01 01:31:51;;;;;;;5.38;3.10;;;16.50;99.90;;;;;;5045016;28;20050;-83
2023/06/01 01:34:20;;;;;;;7.38;2.92;;;16.50;99.90;;;;;;5028714;28;20041;-83
2023/06/01 01:36:47;;;;;;;4.07;2.75;;;16.50;99.90;;;;;;5052835;28;20064;-82
2023/06/01 01:39:13;;;;;;;5.00;3.00;;;16.50;99.90;;;;;;5052346;28;20056;-82
2023/06/01 01:41:40;;;;;;;5.53;2.92;;;16.40;99.90;;;;;;5032741;28;20041;-82
2023/06/01 01:44:07;;;;;;;5.75;2.83;;;16.40;99.90;;;;;;5046203;28;20049;-83
2023/06/01 01:47:10;;;;;;;6.40;2.85;;;16.40;99.90;;;;;;5026270;28;20128;-83
2023/06/01 01:49:44;;;;;;;3.75;2.55;;;16.40;99.90;;;;;;5033461;28;20048;-83
2023/06/01 01:52:22;;;;;;;8.32;3.47;;;16.30;99.90;;;;;;5045543;28;20052;-83
2023/06/01 01:54:50;;;;;;;4.35;2.90;;;16.30;99.90;;;;;;5034108;28;20492;-83
2023/06/01 01:57:18;;;;;;;5.30;3.05;;;16.30;99.90;;;;;;5031401;28;20509;-83
2023/06/01 01:59:46;;;;;;;5.13;2.88;;;16.20;99.90;;;;;;5046223;28;20037;-83
2023/06/01 02:02:12;;;;;;;5.32;3.05;;;16.20;99.90;;;;;;5026474;28;20044;-83
2023/06/01 02:04:45;;;;;;;6.50;3.20;;;16.20;99.90;;;;;;5052334;28;20041;-83
2023/06/01 02:07:12;;;;;;;3.92;3.08;;;16.20;99.90;;;;;;5031872;28;20076;-83
2023/06/01 02:09:40;;;;;;;4.28;2.88;;;16.10;99.90;;;;;;5035348;28;20054;-82
2023/06/01 02:12:07;;;;;;;5.55;3.30;;;16.10;99.90;;;;;;5032803;28;20060;-83
2023/06/01 02:14:34;;;;;;;5.00;3.10;;;16.10;99.90;;;;;;5045591;28;20049;-82
2023/06/01 02:17:02;;;;;;;7.28;3.10;;;16.10;99.90;;;;;;5022197;28;20046;-82
2023/06/01 02:19:29;;;;;;;4.88;3.17;;;16.00;99.90;;;;;;5048524;28;20060;-83
2023/06/01 02:21:56;;;;;;;9.30;3.92;;;16.00;99.90;;;;;;5047807;28;20514;-82
2023/06/01 02:24:23;;;;;;;5.55;3.45;;;16.00;99.90;;;;;;5051958;28;20055;-83
2023/06/01 02:26:53;;;;;;;7.07;3.72;;;15.90;99.90;;;;;;5050830;28;20103;-82
2023/06/01 02:29:23;;;;;;;8.63;4.28;;;15.90;99.90;;;;;;5044797;28;20045;-82
2023/06/01 02:31:50;;;;;;;4.47;3.75;;;15.90;99.90;;;;;;5044562;28;20110;-83
2023/06/01 02:34:18;;;;;;;6.68;3.30;;;15.90;99.90;;;;;;5044837;28;20055;-83
2023/06/01 02:36:46;;;;;;;5.20;3.30;;;15.80;99.90;;;;;;5028192;28;20545;-83
2023/06/01 02:39:14;;;;;;;4.20;3.20;;;15.80;99.90;;;;;;5033583;28;20713;-83
2023/06/01 02:41:41;;;;;;;9.32;3.47;;;15.70;99.90;;;;;;5049332;28;20459;-84
2023/06/01 02:44:07;;;;;;;6.55;3.28;;;15.80;99.90;;;;;;5026446;28;20045;-83
2023/06/01 02:46:34;;;;;;;6.55;3.70;;;15.60;99.90;;;;;;5040009;28;20072;-82
2023/06/01 02:49:01;;;;;;;8.48;3.25;;;15.70;99.90;;;;;;5049265;28;20131;-83
2023/06/01 02:51:28;;;;;;;4.60;3.35;;;15.60;99.90;;;;;;5053622;28;20099;-83
2023/06/01 02:53:55;;;;;;;3.40;3.05;;;15.60;99.90;;;;;;5051625;28;20052;-83
2023/06/01 02:56:22;;;;;;;7.32;3.63;;;15.60;99.90;;;;;;5050585;28;20049;-83
2023/06/01 02:58:50;;;;;;;4.63;3.40;;;15.50;99.90;;;;;;5027205;28;20125;-83
2023/06/01 03:01:16;;;;;;;6.10;3.50;;;15.60;99.90;;;;;;5045406;28;20051;-83
2023/06/01 03:03:44;;;;;;;6.43;3.35;;;15.60;99.90;;;;;;5047969;28;20094;-82
2023/06/01 03:06:13;;;;;;;5.35;3.40;;;15.50;99.90;;;;;;5052393;28;20049;-83
2023/06/01 03:08:39;;;;;;;5.15;3.25;;;15.50;99.90;;;;;;5050505;28;20379;-83
2023/06/01 03:11:06;;;;;;;7.07;4.05;;;15.50;99.90;;;;;;5052467;28;20071;-84
2023/06/01 03:13:33;;;;;;;6.57;3.30;;;15.50;99.90;;;;;;5046798;28;20056;-83
2023/06/01 03:16:00;;;;;;;5.10;3.25;;;15.50;99.90;;;;;;5045876;28;20041;-83
2023/06/01 03:18:27;;;;;;;9.27;3.65;;;15.40;99.90;;;;;;5047395;28;20060;-81
2023/06/01 03:20:53;;;;;;;6.68;3.55;;;15.40;99.90;;;;;;5061501;28;20045;-82
2023/06/01 03:23:21;;;;;;;6.40;3.30;;;15.40;99.90;;;;;;5058045;28;20050;-83
2023/06/01 03:25:47;;;;;;;7.32;3.65;;;15.40;99.90;;;;;;5053692;28;20041;-84
2023/06/01 03:28:14;;;;;;;9.43;3.95;;;15.40;99.90;;;;;;5054965;28;20041;-82
2023/06/01 03:30:42;;;;;;;9.57;3.78;;;15.40;99.90;;;;;;5052815;28;20045;-82
2023/06/01 03:33:09;;;;;;;6.63;3.92;;;15.30;99.90;;;;;;5046019;28;20048;-83
2023/06/01 03:35:37;;;;;;;7.50;3.90;;;15.30;99.90;;;;;;5034675;28;20168;-83
2023/06/01 03:38:04;;;;;;;8.82;3.88;;;15.20;99.90;;;;;;5050219;28;20041;-83
2023/06/01 03:40:30;;;;;;;4.90;3.20;;;15.20;99.90;;;;;;5046288;28;20075;-83
2023/06/01 03:42:57;;;;;;;9.10;3.47;;;15.20;99.90;;;;;;5047446;28;20041;-83
2023/06/01 03:45:24;;;;;;;6.82;3.30;;;15.20;99.90;;;;;;5044762;28;20068;-83
2023/06/01 03:47:51;;;;;;;9.07;3.97;;;15.20;99.90;;;;;;5027523;28;20056;-83
2023/06/01 03:50:18;;;;;;;6.70;3.53;;;15.20;99.90;;;;;;5056055;28;20459;-82
2023/06/01 03:52:44;;;;;;;7.60;3.65;;;15.20;99.90;;;;;;5033781;28;20464;-83
2023/06/01 03:55:13;;;;;;;6.93;3.47;;;15.20;99.90;;;;;;5055581;28;20086;-83
2023/06/01 03:57:40;;;;;;;4.00;3.20;;;15.10;99.90;;;;;;5049438;28;20080;-83
2023/06/01 04:00:17;;;;;;;7.03;3.10;;;15.10;99.90;;;;;;5050653;28;20043;-83
2023/06/01 04:02:55;;;;;;;5.45;3.65;;;15.10;99.90;;;;;;5029995;28;20048;-83
2023/06/01 04:05:25;;;;;;;7.43;3.95;;;15.20;99.90;;;;;;5027097;28;20040;-84
2023/06/01 04:07:54;;;;;;;6.45;3.45;;;15.20;99.90;;;;;;5054173;28;20556;-82
2023/06/01 04:10:21;;;;;;;5.32;3.10;;;15.20;99.90;;;;;;5055311;28;20102;-82
2023/06/01 04:12:49;;;;;;;7.20;3.35;;;15.20;99.90;;;;;;5050813;28;20045;-83
2023/06/01 04:15:18;;;;;;;6.47;3.47;;;15.10;99.90;;;;;;5046883;28;20709;-82
2023/06/01 04:17:44;;;;;;;5.80;2.95;;;15.10;99.90;;;;;;5028303;28;20050;-83
2023/06/01 04:20:13;;;;;;;5.55;3.85;;;15.20;99.90;;;;;;5037597;28;20041;-83
2023/06/01 04:22:40;;;;;;;6.50;3.85;;;15.20;99.90;;;;;;5053153;28;20045;-83
2023/06/01 04:25:11;;;;;;;10.90;4.00;;;15.20;99.90;;;;;;5056470;28;20099;-83
2023/06/01 04:27:44;;;;;;;5.90;3.10;;;15.20;99.90;;;;;;5031092;28;20076;-82
2023/06/01 04:30:16;;;;;;;6.57;3.25;;;15.20;99.90;;;;;;5046511;28;20095;-83
2023/06/01 04:32:44;;;;;;;7.35;3.78;;;15.20;99.90;;;;;;5045711;28;20136;-84
2023/06/01 04:35:11;;;;;;;8.40;3.47;;;15.20;99.90;;;;;;5038138;28;20108;-84
2023/06/01 04:37:39;;;;;;;5.78;3.33;;;15.30;99.90;;;;;;5049394;28;20049;-82
2023/06/01 04:40:09;;;;;;;5.03;3.40;;;15.30;99.90;;;;;;5048627;28;20053;-83
2023/06/01 04:42:41;;;;;;;5.05;3.55;;;15.30;99.90;;;;;;5028178;28;20049;-83
2023/06/01 04:45:09;;;;;;;6.70;3.22;;;15.40;99.90;;;;;;5027443;28;20045;-82
2023/06/01 04:47:37;;;;;;;5.72;3.47;;;15.40;99.90;;;;;;5045188;28;20067;-83
2023/06/01 04:50:08;;;;;;;5.72;3.38;;;15.40;99.90;;;;;;5039809;28;20053;-83
2023/06/01 04:52:36;;;;;;;8.43;4.00;;;15.50;99.90;;;;;;5033934;28;20049;-83
2023/06/01 04:55:05;;;;;;;5.75;3.67;;;15.60;99.90;;;;;;5051391;28;20053;-83
2023/06/01 04:57:33;;;;;;;10.07;3.80;;;15.70;99.90;;;;;;5047547;28;20046;-84
2023/06/01 05:00:00;;;;;;;5.00;3.55;;;15.80;99.90;;;;;;5027185;28;20123;-84
2023/06/01 05:02:28;;;;;;;6.22;3.95;;;15.90;99.90;;;;;;5042533;28;20049;-83
2023/06/01 05:04:55;;;;;;;10.25;3.30;;;16.10;99.90;;;;;;5054892;28;20049;-82
2023/06/01 05:07:24;;;;;;;8.00;3.28;;;16.20;99.90;;;;;;5050031;28;20071;-82
2023/06/01 05:09:51;;;;;;;8.57;4.50;;;16.40;99.90;;;;;;5049616;28;20486;-83
2023/06/01 05:12:17;;;;;;;8.32;3.60;;;16.50;99.90;;;;;;5030199;28;20398;-83
2023/06/01 05:14:47;;;;;;;8.93;3.97;;;16.70;99.90;;;;;;5043760;28;20474;-84
2023/06/01 05:17:14;;;;;;;6.10;3.35;;;16.80;99.90;;;;;;5046346;28;20698;-83
2023/06/01 05:19:41;;;;;;;10.45;3.55;;;17.00;99.90;;;;;;5055909;28;20060;-84
2023/06/01 05:22:07;;;;;;;5.60;3.60;;;17.10;99.90;;;;;;5052119;28;20037;-83
2023/06/01 05:24:34;;;;;;;10.68;4.18;;;17.20;99.90;;;;;;5052069;28;20057;-83
2023/06/01 05:27:01;;;;;;;8.80;4.10;;;17.30;99.90;;;;;;5029799;28;20052;-83
2023/06/01 05:29:28;;;;;;;11.57;3.85;;;17.40;99.90;;;;;;5041995;28;20045;-83
2023/06/01 05:31:55;;;;;;;9.05;3.90;;;17.50;99.90;;;;;;5027526;28;20045;-83
2023/06/01 05:34:22;;;;;;;11.32;3.38;;;17.50;99.90;;;;;;5040745;28;20045;-83
2023/06/01 05:36:49;;;;;;;8.18;3.47;;;17.60;99.90;;;;;;5050057;28;20045;-82
2023/06/01 05:39:16;;;;;;;6.55;3.05;;;17.60;99.90;;;;;;5033804;28;20045;-84
2023/06/01 05:41:42;;;;;;;9.20;3.80;;;17.60;99.90;;;;;;5049539;28;20060;-83
2023/06/01 05:44:09;;;;;;;9.60;3.47;;;17.60;99.90;;;;;;5046432;28;20037;-83
2023/06/01 05:46:36;;;;;;;7.18;3.40;;;17.60;99.90;;;;;;5042538;28;20060;-82
2023/06/01 05:49:03;;;;;;;9.25;3.70;;;17.60;99.90;;;;;;5058524;28;20053;-83
2023/06/01 05:51:30;;;;;;;11.05;4.03;;;17.60;99.90;;;;;;5032803;28;20049;-83
2023/06/01 05:53:57;;;;;;;8.85;3.03;;;17.60;99.90;;;;;;5033615;28;20053;-83
2023/06/01 05:56:23;;;;;;;5.40;3.00;;;17.60;99.90;;;;;;5048647;28;20041;-83
2023/06/01 05:58:52;;;;;;;6.38;3.40;;;17.60;99.90;;;;;;5043870;28;20045;-83
2023/06/01 06:01:20;;;;;;;7.70;3.50;;;17.60;99.90;;;;;;5039205;28;20091;-80
2023/06/01 06:03:47;;;;;;;9.13;3.40;;;17.60;99.90;;;;;;5057250;28;20136;-84
2023/06/01 06:06:14;;;;;;;11.32;3.40;;;17.60;99.90;;;;;;5051468;28;20041;-83
2023/06/01 06:08:41;;;;;;;8.80;3.20;;;17.60;99.90;;;;;;5050512;28;20044;-84
2023/06/01 06:11:07;;;;;;;11.80;2.97;;;17.60;99.90;;;;;;5049788;28;20093;-82
2023/06/01 06:13:34;;;;;;;6.28;2.90;;;17.60;99.90;;;;;;5041659;28;20501;-83
2023/06/01 06:16:01;;;;;;;10.07;3.00;;;17.60;99.90;;;;;;5043322;28;20045;-84
2023/06/01 06:18:28;;;;;;;12.02;3.40;;;17.60;99.90;;;;;;5056243;28;20040;-83
2023/06/01 06:20:55;;;;;;;10.07;3.60;;;17.60;99.90;;;;;;5051922;28;20316;-83
2023/06/01 06:23:22;;;;;;;9.85;3.25;;;17.70;99.90;;;;;;5051973;28;20041;-84
2023/06/01 06:25:48;;;;;;;7.45;3.30;;;17.70;99.90;;;;;;5032499;28;20058;-82
2023/06/01 06:28:15;;;;;;;9.93;3.15;;;17.70;99.90;;;;;;5027277;28;20071;-85
2023/06/01 06:30:42;;;;;;;10.02;3.55;;;17.80;99.90;;;;;;5042928;28;20053;-83
2023/06/01 06:33:09;;;;;;;11.18;3.15;;;17.70;99.90;;;;;;5053953;28;20048;-83
2023/06/01 06:35:41;;;;;;;11.00;4.00;;;17.70;99.90;;;;;;5036348;28;20057;-84
2023/06/01 06:38:08;;;;;;;6.60;3.38;;;17.80;99.90;;;;;;5050462;28;20064;-84
2023/06/01 06:40:35;;;;;;;8.98;3.28;;;17.70;99.90;;;;;;5049463;28;20105;-83
2023/06/01 06:43:01;;;;;;;7.15;3.50;;;17.80;99.90;;;;;;5026858;28;20072;-83
2023/06/01 06:45:28;;;;;;;4.43;2.60;;;17.80;99.90;;;;;;5044819;28;20107;-84
2023/06/01 06:47:55;;;;;;;8.18;3.10;;;17.80;99.90;;;;;;5058629;28;20540;-83
2023/06/01 06:50:22;;;;;;;7.20;3.08;;;17.90;99.90;;;;;;5059118;28;20455;-83
2023/06/01 06:52:48;;;;;;;9.63;3.35;;;17.90;99.90;;;;;;5039222;28;20049;-83
2023/06/01 06:55:15;;;;;;;6.07;3.20;;;17.90;99.90;;;;;;5059746;28;20041;-83
2023/06/01 06:57:42;;;;;;;11.30;3.45;;;17.90;99.90;;;;;;5054052;28;20084;-83
2023/06/01 07:00:14;;;;;;;7.90;3.13;;;17.90;99.90;;;;;;5043566;28;20045;-84
2023/06/01 07:02:41;;;;;;;9.07;3.60;;;17.90;99.90;;;;;;5020530;28;20042;-84
2023/06/01 07:05:10;;;;;;;10.18;3.60;;;17.90;99.90;;;;;;5051964;28;20115;-83
2023/06/01 07:07:38;;;;;;;7.32;3.38;;;18.00;99.90;;;;;;5042313;28;20531;-84
2023/06/01 07:10:06;;;;;;;7.82;3.40;;;18.00;99.90;;;;;;5046270;28;20056;-83
2023/06/01 07:12:33;;;;;;;9.02;3.42;;;18.00;99.90;;;;;;5042321;28;20524;-83
2023/06/01 07:15:01;;;;;;;14.80;3.25;;;18.00;99.90;;;;;;5030038;28;20045;-83
2023/06/01 07:17:28;;;;;;;6.03;3.13;;;18.00;99.90;;;;;;5022576;28;21047;-83
2023/06/01 07:19:55;;;;;;;7.40;3.25;;;18.00;99.90;;;;;;5034816;28;20125;-83
2023/06/01 07:22:22;;;;;;;11.88;3.63;;;18.00;99.90;;;;;;5042563;28;20045;-83
2023/06/01 07:24:49;;;;;;;10.40;4.05;;;18.10;99.90;;;;;;5029751;28;20045;-83
2023/06/01 07:27:17;;;;;;;7.63;3.97;;;18.10;99.90;;;;;;5041815;28;20049;-83
2023/06/01 07:29:44;;;;;;;11.05;3.65;;;18.10;99.90;;;;;;5045214;28;20049;-81
2023/06/01 07:32:11;;;;;;;12.02;4.13;;;18.20;99.90;;;;;;5029172;28;20052;-83
2023/06/01 07:34:38;;;;;;;11.15;3.25;;;18.20;99.90;;;;;;5054400;28;20071;-83
2023/06/01 07:37:07;;;;;;;8.10;3.30;;;18.20;99.90;;;;;;5033758;28;20050;-83
2023/06/01 07:39:43;;;;;;;11.75;4.05;;;18.20;99.90;;;;;;5029996;28;20525;-82
2023/06/01 07:42:10;;;;;;;7.78;3.17;;;18.30;99.90;;;;;;5046667;28;20296;-81
2023/06/01 07:44:37;;;;;;;9.50;3.55;;;18.30;99.90;;;;;;5033727;28;20042;-83
2023/06/01 07:47:04;;;;;;;15.30;3.28;;;18.40;99.90;;;;;;5055357;28;20045;-83
2023/06/01 07:49:31;;;;;;;9.93;3.60;;;18.40;99.90;;;;;;5045270;28;20049;-82
2023/06/01 07:51:58;;;;;;;7.57;3.33;;;18.50;99.90;;;;;;5057265;28;20071;-83
2023/06/01 07:54:25;;;;;;;13.85;3.17;;;18.50;99.90;;;;;;5053530;28;20505;-82
2023/06/01 07:56:53;;;;;;;7.60;3.13;;;18.50;99.90;;;;;;5053999;28;20048;-83
2023/06/01 07:59:27;;;;;;;7.55;3.75;;;18.50;99.90;;;;;;5048156;28;20048;-83
2023/06/01 08:01:56;;;;;;;8.00;3.58;;;18.60;99.90;;;;;;5041537;28;20049;-82
2023/06/01 08:04:24;;;;;;;9.05;3.20;;;18.60;99.90;;;;;;5062263;28;20048;-83
2023/06/01 08:06:52;;;;;;;9.45;3.55;;;18.60;99.90;;;;;;5060512;28;20124;-82
2023/06/01 08:09:21;;;;;;;8.02;3.60;;;18.70;99.90;;;;;;5052258;28;20054;-83
2023/06/01 08:11:48;;;;;;;7.00;3.15;;;18.70;99.90;;;;;;5050001;28;20049;-84
2023/06/01 08:14:16;;;;;;;10.50;3.15;;;18.80;99.90;;;;;;5058372;28;20045;-83
2023/06/01 08:16:43;;;;;;;5.72;3.00;;;18.80;99.90;;;;;;5058673;28;20055;-82
2023/06/01 08:19:10;;;;;;;9.55;3.40;;;18.90;99.90;;;;;;5065188;28;20037;-83
2023/06/01 08:21:37;;;;;;;9.40;3.28;;;18.90;99.90;;;;;;5036476;28;20113;-83
2023/06/01 08:24:04;;;;;;;7.28;2.95;;;19.00;99.90;;;;;;5036198;28;20043;-83
2023/06/01 08:26:30;;;;;;;13.38;3.63;;;19.00;99.90;;;;;;5040838;28;20054;-81
2023/06/01 08:28:57;;;;;;;11.10;3.15;;;19.10;99.90;;;;;;5054058;28;20087;-85
2023/06/01 08:31:25;;;;;;;12.23;3.33;;;19.10;99.90;;;;;;5033229;28;20057;-83
2023/06/01 08:33:52;;;;;;;6.93;2.97;;;19.20;99.90;;;;;;5058912;28;20052;-82
2023/06/01 08:36:20;;;;;;;10.57;3.55;;;19.20;99.90;;;;;;5040202;28;20120;-83
2023/06/01 08:38:49;;;;;;;8.55;3.38;;;19.30;99.90;;;;;;5057347;28;20068;-82
2023/06/01 08:41:40;;;;;;;9.45;3.83;;;19.30;99.90;;;;;;5042094;28;20042;-81
2023/06/01 08:44:08;;;;;;;;;;;19.40;99.90;;;;;;5053783;28;20401;-83
2023/06/01 08:46:36;;;;;;;7.18;3.20;;;19.40;99.90;;;;;;5037617;28;19947;-82
2023/06/01 08:49:05;;;;;;;6.68;3.28;;;19.40;99.90;;;;;;5025166;28;20057;-83
2023/06/01 08:51:36;;;;;;;11.17;3.93;;;19.50;99.90;;;;;;5049776;28;20057;-81
2023/06/01 08:54:05;;;;;;;7.32;4.05;;;19.60;99.90;;;;;;5058060;28;20057;-83
2023/06/01 08:56:32;;;;;;;7.32;3.28;;;19.60;99.90;;;;;;5052866;28;20132;-82
2023/06/01 08:59:00;;;;;;;5.85;3.40;;;19.70;99.90;;;;;;5049580;28;20042;-81
2023/06/01 09:01:27;;;;;;;10.18;3.63;;;19.70;99.90;;;;;;5050689;28;20044;-82
2023/06/01 09:03:54;;;;;;;8.43;3.85;;;19.80;99.90;;;;;;5043444;28;20060;-83
2023/06/01 09:06:21;;;;;;;11.05;3.90;;;19.80;99.90;;;;;;5055461;28;20055;-82
2023/06/01 09:08:49;;;;;;;6.70;3.08;;;19.90;99.90;;;;;;5057058;28;20099;-82
2023/06/01 09:11:17;;;;;;;9.32;3.38;;;19.90;99.90;;;;;;5040094;28;20049;-83
2023/06/01 09:13:43;;;;;;;7.97;3.50;;;20.00;99.90;;;;;;5052382;28;21813;-82
2023/06/01 09:16:10;;;;;;;7.88;3.55;;;20.00;99.90;;;;;;5053660;28;20036;-83
2023/06/01 09:18:51;;;;;;;7.82;3.50;;;20.10;99.90;;;;;;5064876;28;20053;-82
2023/06/01 09:21:18;;;;;;;9.07;3.75;;;20.20;99.90;;;;;;5023068;28;20053;-82
2023/06/01 09:23:45;;;;;;;13.45;4.68;;;20.10;99.90;;;;;;5040958;28;20053;-84
2023/06/01 09:26:12;;;;;;;8.07;3.80;;;20.20;99.90;;;;;;5023642;28;20046;-83
2023/06/01 09:28:59;;;;;;;9.45;3.38;;;20.20;99.90;;;;;;5044433;28;20045;-83
2023/06/01 09:31:35;;;;;;;8.43;3.40;;;20.30;99.90;;;;;;5035511;28;20049;-83
2023/06/01 09:34:02;;;;;;;17.15;3.80;;;20.40;99.90;;;;;;5055453;28;20059;-83
2023/06/01 09:36:29;;;;;;;10.07;3.55;;;20.40;99.90;;;;;;5038266;28;20520;-82
2023/06/01 09:39:05;;;;;;;7.80;3.65;;;20.40;99.90;;;;;;5048539;28;20049;-83
2023/06/01 09:41:48;;;;;;;11.80;3.70;;;20.50;99.90;;;;;;5049654;28;20583;-83
2023/06/01 09:44:26;;;;;;;7.55;3.92;;;20.60;99.90;;;;;;5048567;28;20592;-84
2023/06/01 09:46:58;;;;;;;12.20;4.03;;;20.60;99.90;;;;;;5063121;28;20052;-84
2023/06/01 09:49:29;;;;;;;7.22;3.88;;;20.60;99.90;;;;;;5043103;28;20095;-83
2023/06/01 09:52:05;;;;;;;9.93;4.05;;;20.70;99.90;;;;;;5056598;28;20088;-83
2023/06/01 09:54:34;;;;;;;7.75;3.60;;;20.70;99.90;;;;;;5057117;28;20045;-83
2023/06/01 09:57:03;;;;;;;12.13;3.57;;;20.80;99.90;;;;;;5055423;28;20042;-84
2023/06/01 09:59:44;;;;;;;12.90;4.50;;;20.80;99.90;;;;;;5034734;28;20280;-83
2023/06/01 10:02:18;;;;;;;10.68;3.65;;;20.90;99.90;;;;;;5064637;28;20052;-84
2023/06/01 10:04:49;;;;;;;8.43;3.47;;;20.90;99.90;;;;;;5057409;28;20053;-83
2023/06/01 10:07:17;;;;;;;12.10;4.78;;;21.00;99.90;;;;;;5058911;28;20053;-84
2023/06/01 10:09:48;;;;;;;5.53;3.45;;;21.10;99.90;;;;;;5041218;28;20083;-83
2023/06/01 10:12:15;;;;;;;9.25;3.65;;;21.10;99.90;;;;;;5054336;28;20057;-83
2023/06/01 10:14:42;;;;;;;12.55;4.85;;;21.10;99.90;;;;;;5054513;28;20536;-83
2023/06/01 10:17:11;;;;;;;5.32;3.72;;;21.20;99.90;;;;;;5068138;28;20059;-84
2023/06/01 10:19:38;;;;;;;7.82;4.28;;;21.20;99.90;;;;;;5065720;28;20484;-84
2023/06/01 10:22:06;;;;;;;7.15;4.03;;;21.30;99.90;;;;;;5058743;28;20045;-84
2023/06/01 10:24:40;;;;;;;8.13;4.00;;;21.40;99.90;;;;;;5060603;28;20045;-83
2023/06/01 10:27:22;;;;;;;10.43;4.10;;;21.40;99.90;;;;;;5040492;28;20061;-83
2023/06/01 10:29:51;;;;;;;7.30;3.83;;;21.40;99.90;;;;;;5053594;28;20053;-84
2023/06/01 10:32:37;;;;;;;11.37;3.80;;;21.50;99.90;;;;;;5045347;28;20076;-83
2023/06/01 10:35:07;;;;;;;7.65;3.83;;;21.60;99.90;;;;;;5038220;28;20344;-85
2023/06/01 10:37:34;;;;;;;9.95;4.60;;;21.60;99.90;;;;;;5056262;28;20108;-83
2023/06/01 10:40:16;;;;;;;9.90;4.43;;;21.70;99.90;;;;;;5056439;28;20046;-84
2023/06/01 10:42:44;;;;;;;9.18;4.20;;;21.70;99.90;;;;;;5051272;28;20052;-83
2023/06/01 10:45:40;;;;;;;9.73;4.00;;;21.70;99.90;;;;;;5056155;28;20060;-83
2023/06/01 10:48:11;;;;;;;5.10;3.83;;;21.80;99.90;;;;;;5061635;28;20465;-83
2023/06/01 10:50:40;;;;;;;8.75;4.15;;;21.90;99.90;;;;;;5050924;28;20148;-84
2023/06/01 10:53:29;;;;;;;12.75;5.28;;;21.90;99.90;;;;;;5055972;28;20049;-82
2023/06/01 10:56:20;;;;;;;14.25;4.22;;;21.90;99.90;;;;;;5050944;28;20045;-83
2023/06/01 10:59:09;;;;;;;8.98;4.13;;;21.90;99.90;;;;;;5044954;28;20045;-83
2023/06/01 11:01:46;;;;;;;11.27;4.45;;;21.90;99.90;;;;;;5060273;28;20052;-84
2023/06/01 11:04:14;;;;;;;9.32;4.28;;;22.00;99.90;;;;;;5051733;28;20045;-83
2023/06/01 11:06:43;;;;;;;6.82;3.75;;;22.10;99.90;;;;;;5055054;28;20128;-83
2023/06/01 11:09:11;;;;;;;8.27;4.28;;;22.10;99.90;;;;;;5052137;28;20044;-84
2023/06/01 11:11:48;;;;;;;11.57;4.57;;;22.20;99.90;;;;;;5032051;28;20135;-84
2023/06/01 11:14:15;;;;;;;11.93;4.63;;;22.30;99.90;;;;;;5045725;28;20568;-83
2023/06/01 11:16:43;;;;;;;6.35;3.85;;;22.30;99.90;;;;;;5060656;28;20041;-83
2023/06/01 11:19:10;;;;;;;11.52;4.20;;;22.30;99.90;;;;;;5050694;28;20072;-83
2023/06/01 11:21:43;;;;;;;7.43;4.18;;;22.40;99.90;;;;;;5058192;28;20405;-84
2023/06/01 11:24:15;;;;;;;10.98;4.22;;;22.40;99.90;;;;;;5036206;28;20052;-83
2023/06/01 11:26:50;;;;;;;10.90;4.25;;;22.40;99.90;;;;;;5033522;28;20052;-83
2023/06/01 11:29:25;;;;;;;10.57;4.32;;;22.40;99.90;;;;;;5027983;28;20049;-83
2023/06/01 11:31:57;;;;;;;6.13;3.70;;;22.50;99.90;;;;;;5061604;28;20108;-84
2023/06/01 11:34:39;;;;;;;8.90;4.32;;;22.50;99.90;;;;;;5058253;28;20049;-83
2023/06/01 11:37:12;;;;;;;12.25;3.80;;;22.60;99.90;;;;;;5050194;28;20124;-83
2023/06/01 11:39:40;;;;;;;13.45;4.75;;;22.60;99.90;;;;;;5019400;28;20221;-83
2023/06/01 11:42:16;;;;;;;11.13;3.40;;;22.70;99.90;;;;;;5049971;28;20080;-83
2023/06/01 11:44:45;;;;;;;12.43;4.80;;;22.80;99.90;;;;;;5051645;28;20049;-83
2023/06/01 11:47:12;;;;;;;7.53;3.90;;;22.80;99.90;;;;;;5060630;28;20051;-83
2023/06/01 11:49:50;;;;;;;12.60;4.45;;;22.80;99.90;;;;;;5040181;28;20049;-83
2023/06/01 11:52:18;;;;;;;8.95;4.18;;;22.90;99.90;;;;;;5055139;28;20045;-84
2023/06/01 11:54:49;;;;;;;11.85;4.40;;;23.00;99.90;;;;;;5053154;28;20453;-83
2023/06/01 11:57:16;;;;;;;10.98;4.18;;;23.10;99.90;;;;;;5050214;28;20045;-84
2023/06/01 11:59:45;;;;;;;8.40;3.78;;;23.10;99.90;;;;;;5055927;28;20068;-83
2023/06/01 12:02:24;;;;;;;8.20;4.13;;;23.20;99.90;;;;;;5060403;28;20041;-83
2023/06/01 12:05:08;;;;;;;8.98;4.82;;;23.20;99.90;;;;;;5053542;28;20759;-83
2023/06/01 12:07:46;;;;;;;6.10;3.88;;;23.20;99.90;;;;;;5052861;28;20057;-83
2023/06/01 12:10:15;;;;;;;11.02;3.72;;;23.30;99.90;;;;;;5015553;28;20052;-83
2023/06/01 12:12:43;;;;;;;13.23;4.57;;;23.30;99.90;;;;;;5043953;28;20058;-83
2023/06/01 12:15:20;;;;;;;13.57;4.70;;;23.40;99.90;;;;;;5055197;28;20049;-84
2023/06/01 12:17:57;;;;;;;8.27;3.78;;;23.50;99.90;;;;;;5063164;28;20106;-85
2023/06/01 12:20:33;;;;;;;19.92;4.65;;;23.50;99.90;;;;;;5039024;28;20077;-83
2023/06/01 12:23:03;;;;;;;10.52;4.15;;;23.60;99.90;;;;;;5040649;28;20045;-84
2023/06/01 12:25:33;;;;;;;13.60;3.90;;;23.60;99.90;;;;;;5036286;28;20046;-84
2023/06/01 12:28:04;;;;;;;14.18;4.32;;;23.70;99.90;;;;;;5051257;28;20586;-84
2023/06/01 12:30:32;;;;;;;14.95;3.83;;;23.70;99.90;;;;;;5058176;28;20051;-84
2023/06/01 12:32:59;;;;;;;6.50;3.92;;;23.70;99.90;;;;;;5048463;28;20064;-84
2023/06/01 12:35:26;;;;;;;11.57;4.97;;;23.70;99.90;;;;;;5061208;28;20047;-83
2023/06/01 12:38:10;;;;;;;8.13;4.20;;;23.80;99.90;;;;;;5042072;28;20405;-84
2023/06/01 12:40:38;;;;;;;11.68;3.95;;;23.90;99.90;;;;;;5036773;28;20065;-84
2023/06/01 12:43:07;;;;;;;10.52;4.53;;;23.90;99.90;;;;;;5052300;28;20049;-83
2023/06/01 12:45:36;;;;;;;8.05;4.40;;;24.00;99.90;;;;;;5043481;28;20079;-84
2023/06/01 12:48:03;;;;;;;7.20;3.92;;;24.00;99.90;;;;;;5048770;28;20053;-84
2023/06/01 12:50:30;;;;;;;7.72;4.07;;;24.00;99.90;;;;;;5060541;28;20052;-84
2023/06/01 12:52:57;;;;;;;7.60;4.25;;;24.00;99.90;;;;;;5059129;28;20056;-85
2023/06/01 12:55:23;;;;;;;8.32;4.50;;;24.00;99.90;;;;;;5032653;28;20056;-84
2023/06/01 12:57:55;;;;;;;6.43;3.80;;;24.10;99.90;;;;;;5050904;28;20061;-84